Terminal Aerodrome Forecast
Issued by NWS

Home | Current Version | Previous Version | Text Only | Print | Product List | Glossary On
Versions: 1 2 3 4 5 6 7 8 9 10 11 12 13 14 15 16 17
622
FTUS45 KRIW 301850 AAA
TAFCPR
TAF AMD
KCPR 301850Z 3019/3118 22012G18KT P6SM FEW120
     FM302300 26010KT P6SM VCSH SCT110
     FM310500 23008KT P6SM FEW120 SCT200
     FM311400 23014G20KT P6SM SCT150=

USA.gov is the U.S. government's official web portal to all federal, state and local government web resources and services.